createdAt,value
2022-11-07T14:28:51.268Z,14.85
2022-11-07T14:31:59.069Z,14.58
2022-11-07T14:35:08.407Z,14.38
2022-11-07T14:38:16.785Z,14.19
2022-11-07T14:41:22.412Z,14.01
2022-11-07T14:44:47.594Z,13.96
2022-11-07T14:47:53.898Z,14.42
2022-11-07T14:50:58.730Z,14.78
2022-11-07T14:54:09.867Z,14.91
2022-11-07T14:57:14.542Z,14.50
2022-11-07T15:00:21.320Z,14.06
2022-11-07T15:03:32.145Z,13.75
2022-11-07T15:06:43.296Z,13.50
2022-11-07T15:09:47.796Z,13.41
2022-11-07T15:12:53.039Z,13.80
2022-11-07T15:16:02.886Z,14.16
2022-11-07T15:19:08.430Z,14.41
2022-11-07T15:22:29.966Z,14.58
2022-11-07T15:25:38.267Z,14.60
2022-11-07T15:28:49.333Z,14.13
2022-11-07T15:31:52.807Z,13.70
2022-11-07T15:35:23.304Z,13.40
2022-11-07T15:38:22.907Z,13.13
2022-11-07T15:41:26.353Z,13.04
2022-11-07T15:44:29.858Z,13.42
2022-11-07T15:47:34.142Z,13.75
2022-11-07T15:50:42.710Z,13.92
2022-11-07T15:53:46.120Z,14.01
2022-11-07T15:56:54.462Z,14.08
2022-11-07T16:00:01.978Z,14.15
2022-11-07T16:03:05.581Z,14.20
2022-11-07T16:06:21.600Z,14.24
2022-11-07T16:09:26.229Z,14.28
2022-11-07T16:12:29.731Z,14.29
2022-11-07T16:15:34.361Z,14.33
2022-11-07T16:18:42.730Z,14.37
2022-11-07T16:21:47.404Z,14.39
2022-11-07T16:24:51.007Z,14.40
2022-11-07T16:27:56.312Z,14.38
2022-11-07T16:31:00.760Z,14.36
2022-11-07T16:34:04.277Z,14.34
2022-11-07T16:37:09.070Z,14.33
2022-11-07T16:40:17.455Z,14.32
2022-11-07T16:43:21.443Z,14.30
2022-11-07T16:46:26.900Z,14.26
2022-11-07T16:49:33.248Z,14.21
2022-11-07T16:52:36.689Z,14.14
2022-11-07T16:55:43.112Z,14.05
2022-11-07T16:58:46.519Z,13.94
2022-11-07T17:01:50.861Z,13.86
2022-11-07T17:04:55.385Z,13.82
2022-11-07T17:08:00.916Z,13.78
2022-11-07T17:11:04.724Z,13.73
2022-11-07T17:14:08.225Z,13.66
2022-11-07T17:17:14.060Z,13.60
2022-11-07T17:20:49.907Z,13.53
2022-11-07T17:23:45.402Z,13.47
2022-11-07T17:26:48.652Z,13.41
2022-11-07T17:29:54.163Z,13.37
2022-11-07T17:32:57.802Z,13.33
2022-11-07T17:36:01.713Z,13.29
2022-11-07T17:39:10.437Z,13.23
2022-11-07T17:42:14.102Z,13.16
2022-11-07T17:45:18.102Z,13.08
2022-11-07T17:48:21.401Z,13.02
2022-11-07T17:51:26.457Z,12.96
2022-11-07T17:54:29.938Z,12.87
2022-11-07T17:57:33.341Z,12.78
2022-11-07T18:00:36.763Z,12.71
2022-11-07T18:03:40.188Z,12.63
2022-11-07T18:06:44.136Z,12.57
2022-11-07T18:09:48.932Z,12.51
2022-11-07T18:12:52.770Z,12.46
2022-11-07T18:15:56.243Z,12.39
2022-11-07T18:19:01.215Z,12.34
2022-11-07T18:22:04.678Z,12.26
2022-11-07T18:25:09.291Z,12.20
2022-11-07T18:28:12.711Z,12.12
2022-11-07T18:31:18.701Z,12.04
2022-11-07T18:34:22.153Z,11.98
2022-11-07T18:37:25.672Z,11.91
2022-11-07T18:40:29.305Z,11.86
2022-11-07T18:43:33.082Z,11.81
2022-11-07T18:46:36.927Z,11.74
2022-11-07T18:49:40.334Z,11.66
2022-11-07T18:52:43.663Z,11.56
2022-11-07T18:55:55.586Z,11.47
2022-11-07T18:58:59.266Z,11.39
2022-11-07T19:02:02.640Z,11.31
2022-11-07T19:05:07.747Z,11.25
2022-11-07T19:08:11.229Z,11.20
2022-11-07T19:11:17.152Z,11.14
2022-11-07T19:14:20.614Z,11.07
2022-11-07T19:17:24.088Z,11.01
2022-11-07T19:20:27.640Z,10.92
2022-11-07T19:23:31.646Z,10.83
2022-11-07T19:26:35.103Z,10.77
2022-11-07T19:29:38.542Z,10.72
2022-11-07T19:32:42.109Z,10.67
2022-11-07T19:35:45.967Z,10.65
2022-11-07T19:38:50.413Z,10.62
2022-11-07T19:41:53.943Z,10.59
2022-11-07T19:44:57.445Z,10.56
2022-11-07T19:48:00.947Z,10.54
2022-11-07T19:51:07.294Z,10.52
2022-11-07T19:54:10.100Z,10.49
2022-11-07T19:57:13.556Z,10.44
2022-11-07T20:00:18.040Z,10.42
2022-11-07T20:03:21.702Z,10.37
2022-11-07T20:06:29.942Z,10.30
2022-11-07T20:09:33.348Z,10.25
2022-11-07T20:12:36.842Z,10.21
2022-11-07T20:15:40.946Z,10.18
2022-11-07T20:18:44.868Z,10.14
2022-11-07T20:21:48.151Z,10.08
2022-11-07T20:24:51.489Z,10.03
2022-11-07T20:27:55.010Z,9.96
2022-11-07T20:30:58.466Z,9.93
2022-11-07T20:34:04.595Z,9.90
2022-11-07T20:37:08.031Z,9.88
2022-11-07T20:40:13.855Z,9.85
2022-11-07T20:43:17.398Z,9.83
2022-11-07T20:46:21.203Z,9.80
2022-11-07T20:49:24.725Z,9.78
2022-11-07T20:52:28.274Z,9.78
2022-11-07T20:55:31.700Z,9.76
2022-11-07T20:58:37.131Z,9.74
2022-11-07T21:01:41.777Z,9.72
2022-11-07T21:05:11.236Z,9.68
2022-11-07T21:08:08.903Z,9.63
2022-11-07T21:11:13.340Z,9.60
2022-11-07T21:14:16.697Z,9.56
2022-11-07T21:17:20.015Z,9.50
2022-11-07T21:20:24.113Z,9.43
2022-11-07T21:23:27.583Z,9.37
2022-11-07T21:26:34.904Z,9.29
2022-11-07T21:29:38.477Z,9.26
2022-11-07T21:32:42.032Z,9.25
2022-11-07T21:35:45.531Z,9.24
2022-11-07T21:38:49.606Z,9.24
2022-11-07T21:41:53.046Z,9.22
2022-11-07T21:44:56.427Z,9.21
2022-11-07T21:47:59.850Z,9.18
2022-11-07T21:51:07.211Z,9.16
2022-11-07T21:54:11.546Z,9.14
2022-11-07T21:57:15.007Z,9.13
2022-11-07T22:00:19.359Z,9.13
2022-11-07T22:03:37.625Z,9.14
2022-11-07T22:06:46.873Z,9.15
2022-11-07T22:09:50.238Z,9.13
2022-11-07T22:12:53.714Z,9.09
2022-11-07T22:16:04.384Z,9.04
2022-11-07T22:19:12.241Z,8.95
2022-11-07T22:22:16.198Z,8.86
2022-11-07T22:25:19.631Z,8.81
2022-11-07T22:28:22.916Z,8.78
2022-11-07T22:31:29.639Z,8.72
2022-11-07T22:34:33.069Z,8.66
2022-11-07T22:37:36.571Z,8.65
2022-11-07T22:40:44.933Z,8.63
2022-11-07T22:43:48.987Z,8.59
2022-11-07T22:46:52.544Z,8.56
2022-11-07T22:49:55.951Z,8.53
2022-11-07T22:52:59.438Z,8.50
2022-11-07T22:56:08.583Z,8.46
2022-11-07T22:59:12.448Z,8.46
2022-11-07T23:02:16.077Z,8.46
2022-11-07T23:05:19.707Z,8.46
2022-11-07T23:08:23.106Z,8.47
2022-11-07T23:14:51.667Z,8.50
2022-11-07T23:17:55.164Z,8.50
2022-11-07T23:21:11.263Z,8.47
2022-11-07T23:24:14.148Z,8.44
2022-11-07T23:27:18.303Z,8.35
2022-11-07T23:30:21.765Z,8.32
2022-11-07T23:33:25.370Z,8.31
2022-11-07T23:36:28.871Z,8.31
2022-11-07T23:39:32.269Z,8.30
2022-11-07T23:42:35.770Z,8.24
2022-11-07T23:45:57.089Z,8.20
2022-11-07T23:49:18.821Z,8.18
2022-11-07T23:52:22.318Z,8.13
2022-11-07T23:55:41.077Z,8.10
2022-11-07T23:59:03.119Z,8.06
